createdAt,value
2022-10-19T00:01:15.580Z,18.20
2022-10-19T00:03:44.430Z,18.20
2022-10-19T00:06:26.501Z,18.30
2022-10-19T00:09:05.882Z,18.20
2022-10-19T00:11:35.182Z,18.20
2022-10-19T00:14:02.593Z,18.30
2022-10-19T00:16:33.794Z,18.30
2022-10-19T00:19:05.705Z,18.20
2022-10-19T00:21:32.681Z,18.20
2022-10-19T00:23:59.584Z,18.20
2022-10-19T00:26:28.166Z,18.20
2022-10-19T00:28:56.426Z,18.20
2022-10-19T00:31:23.949Z,18.30
2022-10-19T00:33:51.388Z,18.30
2022-10-19T00:36:24.410Z,18.30
2022-10-19T00:38:52.546Z,18.30
2022-10-19T00:41:22.122Z,18.40
2022-10-19T00:43:51.855Z,18.40
2022-10-19T00:46:18.789Z,18.40
2022-10-19T00:48:45.956Z,18.40
2022-10-19T00:51:13.829Z,18.40
2022-10-19T00:53:42.054Z,18.40
2022-10-19T00:56:14.212Z,18.40
2022-10-19T00:58:43.730Z,18.30
2022-10-19T01:01:16.537Z,18.30
2022-10-19T01:03:45.234Z,18.30
2022-10-19T01:06:15.959Z,18.30
2022-10-19T01:08:42.820Z,18.30
2022-10-19T01:11:43.417Z,18.20
2022-10-19T01:14:28.711Z,18.20
2022-10-19T01:17:38.581Z,18.20
2022-10-19T01:20:41.786Z,18.10
2022-10-19T01:23:36.293Z,18.10
2022-10-19T01:26:11.861Z,18.10
2022-10-19T01:29:08.521Z,18.10
2022-10-19T01:31:50.261Z,18.10
2022-10-19T01:34:26.092Z,18.00
2022-10-19T01:37:33.679Z,18.00
2022-10-19T01:40:08.048Z,18.00
2022-10-19T01:42:57.345Z,18.00
2022-10-19T01:45:39.593Z,18.00
2022-10-19T01:48:32.394Z,18.00
2022-10-19T01:51:11.042Z,18.00
2022-10-19T01:53:49.248Z,18.00
2022-10-19T01:56:21.829Z,18.00
2022-10-19T01:58:51.698Z,18.00
2022-10-19T02:01:23.745Z,18.00
2022-10-19T02:03:53.573Z,18.00
2022-10-19T02:06:22.066Z,18.00
2022-10-19T02:08:52.885Z,17.90
2022-10-19T02:11:21.891Z,18.00
2022-10-19T02:14:10.191Z,18.00
2022-10-19T02:16:58.000Z,18.00
2022-10-19T02:21:57.760Z,18.00
2022-10-19T02:24:25.042Z,18.00
2022-10-19T02:26:54.017Z,18.00
2022-10-19T02:29:21.316Z,18.10
2022-10-19T02:31:51.320Z,18.10
2022-10-19T02:34:18.416Z,18.10
2022-10-19T02:36:45.488Z,18.10
2022-10-19T02:39:12.378Z,18.10
2022-10-19T02:42:04.176Z,18.10
2022-10-19T02:45:00.144Z,18.20
2022-10-19T02:47:49.382Z,18.20
2022-10-19T02:50:19.227Z,18.20
2022-10-19T02:52:46.052Z,18.20
2022-10-19T02:55:12.911Z,18.30
2022-10-19T02:57:39.749Z,18.30
2022-10-19T03:00:08.764Z,18.30
2022-10-19T03:02:35.735Z,18.30
2022-10-19T03:05:03.922Z,18.30
2022-10-19T03:07:30.806Z,18.30
2022-10-19T03:09:57.844Z,18.30
2022-10-19T03:12:24.690Z,18.30
2022-10-19T03:14:51.540Z,18.30
2022-10-19T03:17:18.395Z,18.40
2022-10-19T03:19:46.351Z,18.30
2022-10-19T03:22:14.946Z,18.40
2022-10-19T03:24:41.770Z,18.40
2022-10-19T03:27:08.723Z,18.40
2022-10-19T03:29:35.532Z,18.30
2022-10-19T03:32:02.447Z,18.40
2022-10-19T03:34:29.323Z,18.40
2022-10-19T03:36:56.782Z,18.40
2022-10-19T03:39:23.575Z,18.40
2022-10-19T03:41:50.580Z,18.40
2022-10-19T03:44:17.420Z,18.40
2022-10-19T03:46:44.240Z,18.40
2022-10-19T03:49:12.045Z,18.40
2022-10-19T03:51:38.934Z,18.30
2022-10-19T03:54:11.980Z,18.30
2022-10-19T03:56:39.264Z,18.30
2022-10-19T03:59:07.226Z,18.20
2022-10-19T04:01:38.770Z,18.20
2022-10-19T04:04:11.774Z,18.10
2022-10-19T04:06:43.999Z,18.00
2022-10-19T04:09:16.294Z,18.00
2022-10-19T04:11:43.778Z,17.90
2022-10-19T04:14:19.241Z,17.80
2022-10-19T04:16:53.995Z,17.80
2022-10-19T04:19:20.852Z,17.70
2022-10-19T04:21:49.694Z,17.60
2022-10-19T04:24:18.981Z,17.60
2022-10-19T04:26:56.787Z,17.50
2022-10-19T04:29:29.512Z,17.50
2022-10-19T04:31:57.685Z,17.50
2022-10-19T04:34:24.543Z,17.40
2022-10-19T04:36:53.257Z,17.50
2022-10-19T04:39:20.029Z,17.40
2022-10-19T04:41:46.804Z,17.40
2022-10-19T04:44:13.791Z,17.40
2022-10-19T04:46:40.689Z,17.40
2022-10-19T04:49:07.739Z,17.50
2022-10-19T04:51:35.316Z,17.50
2022-10-19T04:54:04.469Z,17.50
2022-10-19T04:56:32.404Z,17.50
2022-10-19T04:59:00.835Z,17.50
2022-10-19T05:01:30.285Z,17.60
2022-10-19T05:04:01.007Z,17.60
2022-10-19T05:06:29.047Z,17.60
2022-10-19T05:08:56.310Z,17.70
2022-10-19T05:11:23.793Z,17.60
2022-10-19T05:13:51.116Z,17.60
2022-10-19T05:16:21.572Z,17.60
2022-10-19T05:18:56.719Z,17.70
2022-10-19T05:21:23.733Z,17.60
2022-10-19T05:23:55.473Z,17.70
2022-10-19T05:26:25.815Z,17.70
2022-10-19T05:28:56.852Z,17.70
2022-10-19T05:31:28.041Z,17.70
2022-10-19T05:33:58.803Z,17.70
2022-10-19T05:36:38.087Z,17.80
2022-10-19T05:39:17.511Z,17.70
2022-10-19T05:41:46.607Z,17.70
2022-10-19T05:44:22.818Z,17.70
2022-10-19T05:46:51.445Z,17.80
2022-10-19T05:49:22.451Z,17.80
2022-10-19T05:51:49.984Z,17.80
2022-10-19T05:54:17.370Z,17.80
2022-10-19T05:56:45.327Z,17.90
2022-10-19T05:59:18.760Z,17.90
2022-10-19T06:01:47.207Z,17.90
2022-10-19T06:04:15.119Z,17.90
2022-10-19T06:06:43.066Z,18.00
2022-10-19T06:09:10.829Z,18.00
2022-10-19T06:11:41.546Z,18.00
2022-10-19T06:14:13.512Z,18.10
2022-10-19T06:16:41.213Z,18.10
2022-10-19T06:19:08.310Z,18.10
2022-10-19T06:21:35.456Z,18.20
2022-10-19T06:24:05.784Z,18.20
2022-10-19T06:26:35.747Z,18.20
2022-10-19T06:29:03.856Z,18.30
2022-10-19T06:31:36.502Z,18.30
2022-10-19T06:34:04.129Z,18.40
2022-10-19T06:36:32.336Z,18.40
2022-10-19T06:39:01.630Z,18.40
2022-10-19T06:41:30.662Z,18.40
2022-10-19T06:43:57.755Z,18.50
2022-10-19T06:46:27.065Z,18.50
2022-10-19T06:48:57.869Z,18.50
2022-10-19T06:51:26.260Z,18.60
2022-10-19T06:53:57.129Z,18.60
2022-10-19T06:56:26.686Z,18.60
2022-10-19T06:58:54.547Z,18.60
2022-10-19T07:01:22.111Z,18.70
2022-10-19T07:03:54.149Z,18.70
2022-10-19T07:06:21.646Z,18.70
2022-10-19T07:08:49.324Z,18.70
2022-10-19T07:11:19.866Z,18.70
2022-10-19T07:13:46.721Z,18.80
2022-10-19T07:16:21.235Z,18.80
2022-10-19T07:18:51.692Z,18.80
2022-10-19T07:21:20.689Z,18.80
2022-10-19T07:23:48.364Z,18.80
2022-10-19T07:26:23.667Z,18.80
2022-10-19T07:28:51.443Z,18.80
2022-10-19T07:31:22.366Z,18.80
2022-10-19T07:33:58.796Z,18.80
2022-10-19T07:36:28.354Z,18.90
2022-10-19T07:38:55.672Z,18.90
2022-10-19T07:41:24.976Z,19.00
2022-10-19T07:43:53.266Z,19.00
2022-10-19T07:46:29.002Z,19.00
2022-10-19T07:48:56.048Z,19.00
2022-10-19T07:51:23.361Z,19.10
2022-10-19T07:53:50.365Z,19.10
2022-10-19T07:56:24.158Z,19.10
2022-10-19T07:58:53.620Z,19.20
2022-10-19T08:01:24.251Z,19.20
2022-10-19T08:06:41.039Z,19.20
2022-10-19T08:09:07.994Z,19.30
2022-10-19T08:11:36.538Z,19.20
2022-10-19T08:14:04.196Z,19.20
2022-10-19T08:16:40.355Z,19.30
2022-10-19T08:19:13.213Z,19.30
2022-10-19T08:21:45.008Z,19.40
2022-10-19T08:24:15.949Z,19.40
2022-10-19T08:26:43.404Z,19.50
2022-10-19T08:29:21.167Z,19.50
2022-10-19T08:31:49.614Z,19.60
2022-10-19T08:34:16.924Z,19.60
2022-10-19T08:36:44.420Z,19.70
2022-10-19T08:39:16.324Z,19.80
2022-10-19T08:41:43.166Z,19.90
2022-10-19T08:44:59.425Z,20.00
2022-10-19T08:48:04.441Z,20.00
2022-10-19T09:12:07.760Z,20.30
2022-10-19T09:15:06.940Z,20.30
2022-10-19T09:17:34.633Z,20.30
2022-10-19T09:20:20.430Z,20.30
2022-10-19T09:23:15.506Z,20.20
2022-10-19T09:25:42.552Z,20.30
2022-10-19T09:28:53.749Z,20.20
2022-10-19T09:31:39.580Z,20.20
2022-10-19T09:34:22.900Z,20.20
2022-10-19T09:36:57.310Z,20.20
2022-10-19T09:39:29.498Z,20.20
2022-10-19T09:41:57.782Z,20.30
2022-10-19T09:44:26.770Z,20.30
2022-10-19T09:47:28.599Z,20.30
2022-10-19T09:50:23.362Z,20.30
2022-10-19T09:52:56.577Z,20.30
2022-10-19T09:55:27.007Z,20.30
2022-10-19T09:58:06.125Z,20.30
2022-10-19T10:00:42.713Z,20.20
2022-10-19T10:03:22.923Z,20.20
2022-10-19T10:05:50.514Z,20.20
2022-10-19T10:08:25.753Z,20.20
2022-10-19T10:11:07.837Z,20.10
2022-10-19T10:14:09.117Z,20.10
2022-10-19T10:16:37.006Z,20.10
2022-10-19T10:19:10.687Z,20.10
2022-10-19T10:21:55.553Z,20.10
2022-10-19T10:24:29.478Z,20.10
2022-10-19T10:27:05.116Z,20.00
2022-10-19T10:29:39.223Z,20.00
2022-10-19T10:32:19.350Z,20.10
2022-10-19T10:34:57.282Z,20.10
2022-10-19T10:37:47.397Z,20.10
2022-10-19T10:40:30.921Z,20.10
2022-10-19T10:43:15.557Z,20.10
2022-10-19T10:45:48.248Z,20.10
2022-10-19T10:48:24.870Z,20.10
2022-10-19T10:50:52.935Z,20.10
2022-10-19T10:53:41.131Z,20.10
2022-10-19T10:56:25.089Z,20.10
2022-10-19T10:59:06.391Z,20.10
2022-10-19T11:01:52.900Z,20.10
2022-10-19T11:04:28.538Z,20.10
2022-10-19T11:07:18.588Z,20.10
2022-10-19T11:09:54.460Z,20.10
2022-10-19T11:12:51.546Z,20.20
2022-10-19T11:15:33.531Z,20.20
2022-10-19T11:18:27.564Z,20.30
2022-10-19T11:21:17.153Z,20.30
2022-10-19T11:24:13.385Z,20.30
2022-10-19T11:27:24.693Z,20.40
2022-10-19T11:30:16.954Z,20.40
2022-10-19T11:33:25.531Z,20.50
2022-10-19T11:35:59.145Z,20.60
2022-10-19T11:38:36.497Z,20.70
2022-10-19T11:41:20.114Z,20.70
2022-10-19T11:44:14.365Z,20.80
2022-10-19T11:47:15.576Z,20.90
2022-10-19T11:49:57.331Z,21.10
2022-10-19T11:53:03.923Z,21.20
2022-10-19T11:56:03.344Z,21.30
2022-10-19T11:58:35.383Z,21.40
2022-10-19T12:01:52.651Z,21.40
2022-10-19T12:04:35.836Z,21.50
2022-10-19T12:07:48.949Z,21.60
2022-10-19T12:10:42.814Z,21.70
2022-10-19T12:13:18.671Z,21.80
2022-10-19T12:15:50.858Z,21.80
2022-10-19T12:18:35.771Z,21.90
2022-10-19T12:21:11.860Z,21.90
2022-10-19T12:23:46.616Z,21.90
2022-10-19T12:26:19.820Z,21.90
2022-10-19T12:29:06.085Z,21.90
2022-10-19T12:31:33.630Z,21.80
2022-10-19T12:34:25.607Z,21.80
2022-10-19T12:37:07.564Z,21.70
2022-10-19T12:39:56.117Z,21.60
2022-10-19T12:42:53.755Z,21.60
2022-10-19T12:45:49.362Z,21.50
2022-10-19T12:48:20.365Z,21.40
2022-10-19T12:50:50.344Z,21.40
2022-10-19T12:53:36.412Z,21.30
2022-10-19T12:56:25.321Z,21.20
2022-10-19T12:59:01.376Z,21.20
2022-10-19T13:01:34.236Z,21.10
2022-10-19T13:04:32.644Z,21.10
2022-10-19T13:07:10.946Z,21.10
2022-10-19T13:09:43.833Z,21.10
2022-10-19T13:12:16.312Z,21.10
2022-10-19T13:14:52.541Z,21.20
2022-10-19T13:17:35.015Z,21.30
2022-10-19T13:20:14.188Z,21.50
2022-10-19T13:23:13.067Z,21.60
2022-10-19T13:25:41.728Z,21.80
2022-10-19T13:28:28.887Z,22.00
2022-10-19T13:31:05.877Z,22.20
2022-10-19T13:33:47.059Z,22.30
2022-10-19T13:36:14.486Z,22.40
2022-10-19T13:38:59.346Z,22.50
2022-10-19T13:41:49.994Z,22.50
2022-10-19T13:44:25.015Z,22.50
2022-10-19T13:47:10.024Z,22.50
2022-10-19T13:49:51.628Z,22.40
2022-10-19T13:52:36.057Z,22.30
2022-10-19T13:55:33.033Z,22.30
2022-10-19T13:58:41.512Z,22.30
2022-10-19T14:01:20.404Z,22.20
2022-10-19T14:04:05.843Z,22.10
2022-10-19T14:06:44.841Z,22.10
2022-10-19T14:09:50.089Z,22.00
2022-10-19T14:12:30.152Z,22.10
2022-10-19T14:14:58.174Z,22.30
2022-10-19T14:17:30.118Z,22.40
2022-10-19T14:19:59.922Z,22.70
2022-10-19T14:22:36.002Z,22.90
2022-10-19T14:25:21.008Z,23.00
2022-10-19T14:27:56.257Z,23.00
2022-10-19T14:30:29.417Z,23.00
2022-10-19T14:32:59.559Z,22.90
2022-10-19T14:35:34.265Z,22.80
2022-10-19T14:38:02.711Z,22.70
2022-10-19T14:40:33.191Z,22.60
2022-10-19T14:43:01.655Z,22.60
2022-10-19T14:45:32.766Z,22.60
2022-10-19T14:48:06.849Z,22.60
2022-10-19T14:50:49.760Z,22.90
2022-10-19T14:53:47.723Z,23.40
2022-10-19T14:56:18.912Z,24.00
2022-10-19T14:58:57.915Z,24.90
2022-10-19T15:01:25.245Z,25.70
2022-10-19T15:03:52.854Z,26.50
2022-10-19T15:06:26.259Z,27.30
2022-10-19T15:09:15.378Z,27.90
2022-10-19T15:11:53.525Z,28.40
2022-10-19T15:14:30.147Z,28.50
2022-10-19T15:17:21.054Z,28.40
2022-10-19T15:19:48.033Z,28.10
2022-10-19T15:22:32.201Z,27.70
2022-10-19T15:25:06.361Z,27.20
2022-10-19T15:27:47.131Z,26.70
2022-10-19T15:30:22.473Z,26.20
2022-10-19T15:33:02.228Z,25.70
2022-10-19T15:35:33.534Z,25.20
2022-10-19T15:38:20.464Z,24.80
2022-10-19T15:40:48.373Z,24.40
2022-10-19T15:43:39.222Z,24.00
2022-10-19T15:46:31.065Z,23.60
2022-10-19T15:49:19.339Z,23.30
2022-10-19T15:51:48.229Z,22.90
2022-10-19T15:54:18.898Z,22.70
2022-10-19T15:56:47.567Z,22.40
2022-10-19T15:59:21.182Z,22.20
2022-10-19T16:01:53.713Z,21.90
2022-10-19T16:04:22.786Z,21.70
2022-10-19T16:06:49.583Z,21.40
2022-10-19T16:09:21.233Z,21.20
2022-10-19T16:12:01.148Z,21.00
2022-10-19T16:14:28.596Z,20.80
2022-10-19T16:16:59.359Z,20.60
2022-10-19T16:19:26.204Z,20.40
2022-10-19T16:21:53.056Z,20.30
2022-10-19T16:24:19.968Z,20.10
2022-10-19T16:26:46.780Z,20.00
2022-10-19T16:29:13.602Z,19.80
2022-10-19T16:31:40.566Z,19.70
2022-10-19T16:34:07.431Z,19.60
2022-10-19T16:36:34.245Z,19.40
2022-10-19T16:39:01.274Z,19.30
2022-10-19T16:41:28.241Z,19.20
2022-10-19T16:43:57.227Z,19.10
2022-10-19T16:46:26.999Z,19.00
2022-10-19T16:48:55.392Z,18.90
2022-10-19T16:51:38.792Z,18.80
2022-10-19T16:54:09.134Z,18.70
2022-10-19T16:56:37.214Z,18.60
2022-10-19T16:59:06.697Z,18.50
2022-10-19T17:01:35.115Z,18.40
2022-10-19T17:04:02.151Z,18.30
2022-10-19T17:06:29.346Z,18.30
2022-10-19T17:11:45.380Z,18.30
2022-10-19T17:14:13.167Z,18.20
2022-10-19T17:16:40.778Z,18.10
2022-10-19T17:19:09.033Z,18.10
2022-10-19T17:21:38.647Z,18.10
2022-10-19T17:24:08.851Z,18.10
2022-10-19T17:26:39.998Z,18.10
2022-10-19T17:29:07.079Z,18.10
2022-10-19T17:31:35.711Z,18.10
2022-10-19T17:34:03.401Z,18.10
2022-10-19T17:36:34.171Z,18.10
2022-10-19T17:39:09.616Z,18.00
2022-10-19T17:41:36.441Z,18.10
2022-10-19T17:44:04.912Z,18.10
2022-10-19T17:46:34.578Z,18.00
2022-10-19T17:49:02.143Z,18.00
2022-10-19T17:51:32.818Z,18.00
2022-10-19T17:54:07.596Z,17.90
2022-10-19T17:56:36.245Z,17.90
2022-10-19T17:59:04.256Z,17.90
2022-10-19T18:01:31.667Z,17.80
2022-10-19T18:03:58.765Z,17.80
2022-10-19T18:06:31.388Z,17.70
2022-10-19T18:09:00.440Z,17.70
2022-10-19T18:11:36.844Z,17.60
2022-10-19T18:14:05.233Z,17.60
2022-10-19T18:16:45.262Z,17.50
2022-10-19T18:19:16.926Z,17.50
2022-10-19T18:21:46.907Z,17.40
2022-10-19T18:24:19.775Z,17.40
2022-10-19T18:26:50.667Z,17.30
2022-10-19T18:29:20.933Z,17.30
2022-10-19T18:31:52.459Z,17.30
2022-10-19T18:34:25.980Z,17.20
2022-10-19T18:36:54.366Z,17.10
2022-10-19T18:39:21.787Z,17.10
2022-10-19T18:41:55.156Z,17.10
2022-10-19T18:44:26.308Z,17.00
2022-10-19T18:46:54.282Z,17.00
2022-10-19T18:49:21.156Z,16.90
2022-10-19T18:51:54.210Z,16.80
2022-10-19T18:54:23.057Z,16.80
2022-10-19T18:56:49.834Z,16.80
2022-10-19T18:59:16.905Z,16.70
2022-10-19T19:01:43.902Z,16.70
2022-10-19T19:04:11.009Z,16.60
2022-10-19T19:06:38.804Z,16.60
2022-10-19T19:09:11.923Z,16.60
2022-10-19T19:11:41.056Z,16.50
2022-10-19T19:14:16.465Z,16.50
2022-10-19T19:16:45.197Z,16.50
2022-10-19T19:19:15.491Z,16.50
2022-10-19T19:21:44.510Z,16.40
2022-10-19T19:24:21.705Z,16.40
2022-10-19T19:26:52.745Z,16.40
2022-10-19T19:29:21.235Z,16.40
2022-10-19T19:31:48.536Z,16.40
2022-10-19T19:34:15.523Z,16.40
2022-10-19T19:36:47.372Z,16.30
2022-10-19T19:39:18.820Z,16.30
2022-10-19T19:41:46.231Z,16.20
2022-10-19T19:44:13.027Z,16.20
2022-10-19T19:46:39.857Z,16.10
2022-10-19T19:49:06.750Z,16.10
2022-10-19T19:51:33.883Z,16.00
2022-10-19T19:54:01.007Z,16.00
2022-10-19T19:56:28.993Z,15.90
2022-10-19T19:58:59.445Z,15.80
2022-10-19T20:01:27.011Z,15.80
2022-10-19T20:03:54.652Z,15.70
2022-10-19T20:06:25.065Z,15.70
2022-10-19T20:08:54.365Z,15.60
2022-10-19T20:11:21.945Z,15.60
2022-10-19T20:13:49.503Z,15.50
2022-10-19T20:16:23.812Z,15.50
2022-10-19T20:19:04.979Z,15.40
2022-10-19T20:21:33.503Z,15.40
2022-10-19T20:24:00.378Z,15.30
2022-10-19T20:26:28.355Z,15.30
2022-10-19T20:28:56.078Z,15.20
2022-10-19T20:31:23.977Z,15.20
2022-10-19T20:33:50.966Z,15.10
2022-10-19T20:36:24.549Z,15.10
2022-10-19T20:38:55.109Z,15.00
2022-10-19T20:41:25.490Z,15.00
2022-10-19T20:43:53.774Z,15.00
2022-10-19T20:46:24.690Z,14.90
2022-10-19T20:48:52.113Z,14.90
2022-10-19T20:51:30.663Z,14.90
2022-10-19T20:54:02.471Z,14.80
2022-10-19T20:56:33.662Z,14.80
2022-10-19T20:59:22.899Z,14.70
2022-10-19T21:01:51.698Z,14.70
2022-10-19T21:04:19.205Z,14.60
2022-10-19T21:06:49.077Z,14.60
2022-10-19T21:09:20.830Z,14.50
2022-10-19T21:11:50.246Z,14.50
2022-10-19T21:14:26.935Z,14.50
2022-10-19T21:16:59.972Z,14.40
2022-10-19T21:19:29.688Z,14.40
2022-10-19T21:22:03.379Z,14.40
2022-10-19T21:24:36.648Z,14.30
2022-10-19T21:27:07.612Z,14.30
2022-10-19T21:29:35.952Z,14.30
2022-10-19T21:32:03.380Z,14.20
2022-10-19T21:34:32.023Z,14.20
2022-10-19T21:36:59.490Z,14.20
2022-10-19T21:39:26.364Z,14.10
2022-10-19T21:41:53.419Z,14.10
2022-10-19T21:44:22.929Z,14.10
2022-10-19T21:46:50.585Z,14.10
2022-10-19T21:49:18.018Z,14.00
2022-10-19T21:51:51.983Z,14.00
2022-10-19T21:54:25.157Z,14.00
2022-10-19T21:56:53.325Z,14.00
2022-10-19T21:59:20.323Z,13.90
2022-10-19T22:01:47.302Z,13.90
2022-10-19T22:04:18.728Z,13.90
2022-10-19T22:06:46.413Z,13.90
2022-10-19T22:09:17.957Z,13.90
2022-10-19T22:11:45.679Z,13.80
2022-10-19T22:14:14.811Z,13.80
2022-10-19T22:16:42.496Z,13.80
2022-10-19T22:19:10.140Z,13.80
2022-10-19T22:24:09.859Z,13.80
2022-10-19T22:26:41.551Z,13.80
2022-10-19T22:29:09.045Z,13.80
2022-10-19T22:31:37.563Z,13.70
2022-10-19T22:34:09.716Z,13.70
2022-10-19T22:36:36.924Z,13.70
2022-10-19T22:39:04.915Z,13.70
2022-10-19T22:41:31.681Z,13.70
2022-10-19T22:43:58.535Z,13.60
2022-10-19T22:46:25.277Z,13.70
2022-10-19T22:48:52.044Z,13.60
2022-10-19T22:51:18.832Z,13.60
2022-10-19T22:53:45.629Z,13.60
2022-10-19T22:56:13.509Z,13.60
2022-10-19T22:58:40.410Z,13.60
2022-10-19T23:01:11.587Z,13.60
2022-10-19T23:03:40.256Z,13.60
2022-10-19T23:06:10.510Z,13.60
2022-10-19T23:08:37.980Z,13.70
2022-10-19T23:11:05.382Z,13.70
2022-10-19T23:13:32.459Z,13.70
2022-10-19T23:15:59.294Z,13.80
2022-10-19T23:18:26.222Z,13.90
2022-10-19T23:20:59.097Z,13.90
2022-10-19T23:23:27.318Z,14.00
2022-10-19T23:26:11.330Z,14.10
2022-10-19T23:28:41.365Z,14.10
2022-10-19T23:31:16.539Z,14.20
2022-10-19T23:33:44.829Z,14.30
2022-10-19T23:36:17.140Z,14.30
2022-10-19T23:38:48.482Z,14.40
2022-10-19T23:41:16.250Z,14.40
2022-10-19T23:43:43.227Z,14.50
2022-10-19T23:46:10.323Z,14.60
2022-10-19T23:48:37.435Z,14.60
2022-10-19T23:51:12.302Z,14.70
2022-10-19T23:53:43.410Z,14.70
2022-10-19T23:56:26.070Z,14.80
2022-10-19T23:58:54.271Z,14.80
